Time;durP1;ratioP1;P1;durP2;ratioP2;P2;SDS_P1;SDS_P2;PMS_P1;PMS_P2;Temp;Humidity;BMP_temperature;BMP_pressure;BME280_temperature;BME280_humidity;BME280_pressure;Samples;Min_cycle;Max_cycle;Signal;HPM_P1;HPM_P2
2021/04/22 00:00:21;;;;;;;10.18;7.20;;;;;;;;;;5079526;28;20830;-68
2021/04/22 00:02:47;;;;;;;8.88;5.70;;;;;;;;;;5079654;28;20054;-68
2021/04/22 00:05:18;;;;;;;9.45;6.60;;;;;;;;;;5075803;28;20355;-68
2021/04/22 00:07:46;;;;;;;10.10;6.70;;;;;;;;;;5077701;28;20045;-68
2021/04/22 00:10:13;;;;;;;10.27;7.45;;;;;;;;;;5080112;28;20056;-68
2021/04/22 00:12:40;;;;;;;9.90;7.32;;;;;;;;;;5082883;28;20393;-68
2021/04/22 00:15:09;;;;;;;13.23;7.75;;;;;;;;;;5078668;28;20524;-68
2021/04/22 00:17:35;;;;;;;10.18;8.35;;;;;;;;;;5082430;28;20461;-68
2021/04/22 00:20:03;;;;;;;12.80;7.65;;;;;;;;;;5077242;28;20211;-68
2021/04/22 00:22:29;;;;;;;11.57;7.93;;;;;;;;;;5080108;28;20079;-68
2021/04/22 00:24:56;;;;;;;11.55;8.93;;;;;;;;;;5079858;28;20106;-68
2021/04/22 00:27:21;;;;;;;9.68;7.43;;;;;;;;;;5082129;28;20500;-69
2021/04/22 00:29:47;;;;;;;13.15;9.70;;;;;;;;;;5082796;28;20052;-68
2021/04/22 00:32:15;;;;;;;12.57;8.20;;;;;;;;;;5080685;28;20090;-68
2021/04/22 00:34:41;;;;;;;12.95;8.07;;;;;;;;;;5080603;28;20532;-68
2021/04/22 00:37:07;;;;;;;10.02;7.43;;;;;;;;;;5079287;28;20040;-68
2021/04/22 00:39:33;;;;;;;9.77;6.60;;;;;;;;;;5081915;28;20409;-68
2021/04/22 00:42:00;;;;;;;8.60;6.65;;;;;;;;;;5081334;28;20052;-68
2021/04/22 00:44:26;;;;;;;13.32;8.38;;;;;;;;;;5079078;28;20052;-68
2021/04/22 00:46:52;;;;;;;9.50;7.10;;;;;;;;;;5082009;28;20102;-69
2021/04/22 00:49:18;;;;;;;13.75;8.82;;;;;;;;;;5080057;28;20057;-69
2021/04/22 00:51:44;;;;;;;13.55;9.10;;;;;;;;;;5083733;28;20131;-69
2021/04/22 00:54:10;;;;;;;13.55;8.65;;;;;;;;;;5081154;28;20126;-69
2021/04/22 00:56:36;;;;;;;13.80;9.30;;;;;;;;;;5081927;28;20054;-69
2021/04/22 00:59:04;;;;;;;14.27;10.02;;;;;;;;;;5082096;28;20052;-69
2021/04/22 01:01:30;;;;;;;18.27;11.40;;;;;;;;;;5078651;28;20473;-69
2021/04/22 01:03:56;;;;;;;13.50;9.35;;;;;;;;;;5077840;28;20048;-68
2021/04/22 01:06:22;;;;;;;12.15;8.73;;;;;;;;;;5079920;28;20443;-69
2021/04/22 01:08:48;;;;;;;12.57;9.23;;;;;;;;;;5082607;28;20044;-68
2021/04/22 01:11:14;;;;;;;14.27;9.07;;;;;;;;;;5081914;28;20045;-68
2021/04/22 01:13:40;;;;;;;13.85;9.13;;;;;;;;;;5081115;28;20055;-68
2021/04/22 01:16:07;;;;;;;12.63;8.25;;;;;;;;;;5080061;28;20061;-68
2021/04/22 01:18:33;;;;;;;11.63;8.02;;;;;;;;;;5077706;28;20055;-68
2021/04/22 01:21:00;;;;;;;10.63;7.55;;;;;;;;;;5078213;28;20048;-68
2021/04/22 01:23:28;;;;;;;9.45;6.85;;;;;;;;;;5079004;28;20052;-69
2021/04/22 01:25:54;;;;;;;11.77;8.02;;;;;;;;;;5079985;28;20086;-68
2021/04/22 01:28:22;;;;;;;9.27;6.68;;;;;;;;;;5079132;28;20397;-68
2021/04/22 01:30:50;;;;;;;9.38;7.13;;;;;;;;;;5079179;28;20098;-69
2021/04/22 01:33:18;;;;;;;9.50;6.68;;;;;;;;;;5079349;28;20040;-68
2021/04/22 01:35:48;;;;;;;11.50;7.90;;;;;;;;;;5073446;28;20059;-68
2021/04/22 01:38:15;;;;;;;9.75;7.57;;;;;;;;;;5081268;28;20048;-68
2021/04/22 01:40:42;;;;;;;10.95;6.57;;;;;;;;;;5080701;28;20043;-68
2021/04/22 01:43:09;;;;;;;9.82;6.63;;;;;;;;;;5079361;28;20129;-68
2021/04/22 01:45:36;;;;;;;11.82;6.85;;;;;;;;;;5078242;28;20055;-68
2021/04/22 01:48:02;;;;;;;10.32;6.97;;;;;;;;;;5081048;28;20063;-68
2021/04/22 01:50:30;;;;;;;10.13;7.28;;;;;;;;;;5078428;28;20052;-68
2021/04/22 01:52:56;;;;;;;12.52;8.15;;;;;;;;;;5080784;28;20489;-68
2021/04/22 01:55:24;;;;;;;12.30;8.30;;;;;;;;;;5079864;28;20040;-68
2021/04/22 01:57:51;;;;;;;11.88;8.60;;;;;;;;;;5081405;28;20051;-68
2021/04/22 02:00:21;;;;;;;9.73;7.53;;;;;;;;;;5080318;28;20493;-68
2021/04/22 02:02:47;;;;;;;11.38;7.43;;;;;;;;;;5075928;28;20049;-69
2021/04/22 02:05:14;;;;;;;11.60;8.20;;;;;;;;;;5080032;28;20554;-69
2021/04/22 02:07:40;;;;;;;10.48;7.25;;;;;;;;;;5077139;28;20504;-68
2021/04/22 02:10:08;;;;;;;10.57;6.30;;;;;;;;;;5076772;28;20489;-68
2021/04/22 02:12:34;;;;;;;12.05;8.27;;;;;;;;;;5076847;28;20052;-68
2021/04/22 02:15:02;;;;;;;13.77;9.35;;;;;;;;;;5078577;28;20397;-68
2021/04/22 02:17:28;;;;;;;15.25;10.20;;;;;;;;;;5074194;28;20406;-68
2021/04/22 02:19:54;;;;;;;10.43;7.88;;;;;;;;;;5077234;28;20105;-68
2021/04/22 02:22:20;;;;;;;9.18;7.15;;;;;;;;;;5078422;28;20044;-68
2021/04/22 02:24:46;;;;;;;13.02;8.27;;;;;;;;;;5075566;28;20040;-68
2021/04/22 02:27:12;;;;;;;12.90;8.85;;;;;;;;;;5080420;28;20506;-68
2021/04/22 02:29:38;;;;;;;12.80;8.48;;;;;;;;;;5080194;28;20106;-69
2021/04/22 02:32:06;;;;;;;11.20;7.65;;;;;;;;;;5079786;28;20048;-68
2021/04/22 02:34:32;;;;;;;9.77;7.97;;;;;;;;;;5076711;28;20053;-68
2021/04/22 02:36:58;;;;;;;11.90;7.75;;;;;;;;;;5076682;28;20056;-69
2021/04/22 02:39:24;;;;;;;9.93;7.60;;;;;;;;;;5078202;28;20048;-68
2021/04/22 02:41:50;;;;;;;11.50;7.35;;;;;;;;;;5075480;28;20447;-68
2021/04/22 02:44:16;;;;;;;13.45;9.15;;;;;;;;;;5077314;28;20052;-68
2021/04/22 02:46:42;;;;;;;10.48;7.97;;;;;;;;;;5080761;28;20133;-68
2021/04/22 02:49:09;;;;;;;15.35;10.35;;;;;;;;;;5077895;28;20061;-68
2021/04/22 02:51:35;;;;;;;12.40;8.48;;;;;;;;;;5078022;28;20478;-68
2021/04/22 02:54:01;;;;;;;11.70;8.23;;;;;;;;;;5079311;28;20060;-68
2021/04/22 02:56:27;;;;;;;12.73;9.30;;;;;;;;;;5079157;28;20408;-68
2021/04/22 02:58:53;;;;;;;13.48;9.02;;;;;;;;;;5080214;28;20040;-68
2021/04/22 03:01:19;;;;;;;12.23;8.57;;;;;;;;;;5076741;28;20068;-68
2021/04/22 03:03:45;;;;;;;17.25;10.57;;;;;;;;;;5081340;28;20054;-69
2021/04/22 03:06:12;;;;;;;12.90;8.50;;;;;;;;;;5079745;28;20130;-68
2021/04/22 03:08:38;;;;;;;16.45;10.90;;;;;;;;;;5085273;28;20142;-68
2021/04/22 03:11:05;;;;;;;14.10;10.10;;;;;;;;;;5078979;28;20040;-68
2021/04/22 03:13:31;;;;;;;14.70;10.18;;;;;;;;;;5080504;28;20563;-68
2021/04/22 03:15:57;;;;;;;16.23;10.50;;;;;;;;;;5084378;28;20040;-68
2021/04/22 03:18:23;;;;;;;14.00;9.45;;;;;;;;;;5080529;28;20044;-68
2021/04/22 03:20:49;;;;;;;14.50;10.75;;;;;;;;;;5082738;28;20083;-68
2021/04/22 03:23:16;;;;;;;19.13;13.48;;;;;;;;;;5079956;28;20059;-68
2021/04/22 03:25:42;;;;;;;14.15;9.73;;;;;;;;;;5081765;28;20412;-68
2021/04/22 03:28:09;;;;;;;15.48;10.90;;;;;;;;;;5083502;28;20461;-68
2021/04/22 03:30:35;;;;;;;13.10;9.05;;;;;;;;;;5083848;28;20049;-69
2021/04/22 03:33:01;;;;;;;13.57;9.18;;;;;;;;;;5079818;28;20052;-69
2021/04/22 03:35:27;;;;;;;15.35;11.60;;;;;;;;;;5078147;28;20078;-69
2021/04/22 03:37:54;;;;;;;15.13;10.82;;;;;;;;;;5082472;28;20040;-68
2021/04/22 03:40:21;;;;;;;13.40;9.27;;;;;;;;;;5082617;28;20052;-69
2021/04/22 03:42:48;;;;;;;13.75;9.07;;;;;;;;;;5082234;28;20135;-69
2021/04/22 03:45:15;;;;;;;16.58;10.95;;;;;;;;;;5078524;28;20052;-68
2021/04/22 03:47:41;;;;;;;18.98;11.13;;;;;;;;;;5085070;28;20492;-69
2021/04/22 03:50:09;;;;;;;15.70;10.73;;;;;;;;;;5079203;28;20048;-69
2021/04/22 03:52:36;;;;;;;19.08;12.95;;;;;;;;;;5082337;28;20052;-68
2021/04/22 03:55:02;;;;;;;20.48;13.00;;;;;;;;;;5079036;28;20048;-69
2021/04/22 03:57:29;;;;;;;19.45;13.80;;;;;;;;;;5080653;28;20056;-68
2021/04/22 03:59:55;;;;;;;22.00;14.77;;;;;;;;;;5081775;28;20063;-69
2021/04/22 04:02:21;;;;;;;21.55;13.18;;;;;;;;;;5079343;28;20084;-68
2021/04/22 04:04:47;;;;;;;16.45;11.80;;;;;;;;;;5078653;28;20052;-69
2021/04/22 04:07:13;;;;;;;15.65;11.52;;;;;;;;;;5082301;28;20082;-69
2021/04/22 04:09:39;;;;;;;13.00;9.07;;;;;;;;;;5080996;28;20508;-69
2021/04/22 04:12:06;;;;;;;14.68;10.70;;;;;;;;;;5081832;28;20405;-68
2021/04/22 04:14:35;;;;;;;15.52;11.05;;;;;;;;;;5077449;28;20052;-69
2021/04/22 04:17:01;;;;;;;13.73;10.90;;;;;;;;;;5075744;28;20144;-68
2021/04/22 04:19:27;;;;;;;14.20;9.88;;;;;;;;;;5076173;28;20146;-68
2021/04/22 04:21:53;;;;;;;17.10;10.80;;;;;;;;;;5069956;28;20059;-68
2021/04/22 04:24:19;;;;;;;16.52;11.75;;;;;;;;;;5071707;28;20044;-68
2021/04/22 04:26:47;;;;;;;19.35;12.13;;;;;;;;;;5072319;28;20040;-69
2021/04/22 04:29:12;;;;;;;20.95;13.40;;;;;;;;;;5069093;28;20417;-68
2021/04/22 04:31:39;;;;;;;22.42;13.93;;;;;;;;;;5076969;28;20060;-68
2021/04/22 04:34:05;;;;;;;21.20;13.90;;;;;;;;;;5081423;28;20053;-68
2021/04/22 04:36:32;;;;;;;19.75;13.57;;;;;;;;;;5079463;28;20048;-68
2021/04/22 04:38:58;;;;;;;16.73;12.93;;;;;;;;;;5072355;28;20056;-68
2021/04/22 04:41:24;;;;;;;19.92;14.18;;;;;;;;;;5081019;28;20040;-68
2021/04/22 04:43:49;;;;;;;20.48;12.80;;;;;;;;;;5079739;28;20053;-68
2021/04/22 04:46:18;;;;;;;22.98;14.20;;;;;;;;;;5077697;28;20135;-68
2021/04/22 04:48:44;;;;;;;20.30;14.27;;;;;;;;;;5078773;28;20051;-69
2021/04/22 04:51:10;;;;;;;19.80;13.85;;;;;;;;;;5085292;28;20044;-69
2021/04/22 04:53:36;;;;;;;27.67;17.95;;;;;;;;;;5082221;28;20098;-69
2021/04/22 04:56:03;;;;;;;27.10;18.00;;;;;;;;;;5086220;28;20119;-68
2021/04/22 04:58:29;;;;;;;28.13;19.30;;;;;;;;;;5078810;28;20520;-69
2021/04/22 05:00:55;;;;;;;29.65;19.85;;;;;;;;;;5079739;28;20041;-68
2021/04/22 05:03:21;;;;;;;29.05;19.10;;;;;;;;;;5074286;28;20053;-68
2021/04/22 05:05:48;;;;;;;36.25;22.38;;;;;;;;;;5071660;28;20049;-68
2021/04/22 05:08:14;;;;;;;31.63;18.85;;;;;;;;;;5072169;28;20109;-68
2021/04/22 05:10:40;;;;;;;30.15;19.73;;;;;;;;;;5078596;28;20043;-68
2021/04/22 05:13:06;;;;;;;31.27;19.80;;;;;;;;;;5075901;28;20419;-68
2021/04/22 05:15:32;;;;;;;38.60;24.20;;;;;;;;;;5081046;28;20102;-68
2021/04/22 05:17:57;;;;;;;35.38;22.95;;;;;;;;;;5080233;28;20495;-68
2021/04/22 05:20:23;;;;;;;27.90;19.95;;;;;;;;;;5079336;28;20487;-68
2021/04/22 05:22:50;;;;;;;23.98;14.85;;;;;;;;;;5079929;28;20051;-68
2021/04/22 05:25:16;;;;;;;19.65;13.18;;;;;;;;;;5080437;28;20056;-69
2021/04/22 05:27:42;;;;;;;33.97;24.23;;;;;;;;;;5080230;28;20051;-68
2021/04/22 05:30:09;;;;;;;35.33;23.02;;;;;;;;;;5078982;28;20048;-69
2021/04/22 05:32:35;;;;;;;28.90;17.95;;;;;;;;;;5081072;28;20401;-68
2021/04/22 05:35:01;;;;;;;23.58;16.92;;;;;;;;;;5076785;28;20059;-68
2021/04/22 05:37:27;;;;;;;22.35;16.08;;;;;;;;;;5079514;28;20070;-68
2021/04/22 05:39:54;;;;;;;24.58;16.75;;;;;;;;;;5075575;28;20041;-68
2021/04/22 05:42:20;;;;;;;36.88;21.48;;;;;;;;;;5081485;28;20048;-68
2021/04/22 05:44:46;;;;;;;26.55;16.80;;;;;;;;;;5080228;28;20059;-69
2021/04/22 05:47:12;;;;;;;30.95;18.45;;;;;;;;;;5080964;28;20048;-70
2021/04/22 05:49:38;;;;;;;30.10;18.52;;;;;;;;;;5082349;28;20052;-70
2021/04/22 05:52:05;;;;;;;28.95;19.40;;;;;;;;;;5074666;28;20063;-69
2021/04/22 05:54:31;;;;;;;22.80;16.27;;;;;;;;;;5074897;28;20496;-68
2021/04/22 05:56:58;;;;;;;21.67;15.00;;;;;;;;;;5081144;28;20087;-68
2021/04/22 05:59:24;;;;;;;21.05;15.73;;;;;;;;;;5076517;28;20143;-71
2021/04/22 06:01:50;;;;;;;22.30;15.35;;;;;;;;;;5080590;28;20477;-69
2021/04/22 06:04:16;;;;;;;19.48;14.35;;;;;;;;;;5081885;28;20048;-69
2021/04/22 06:06:42;;;;;;;18.08;12.85;;;;;;;;;;5079892;28;20091;-69
2021/04/22 06:09:08;;;;;;;21.05;14.52;;;;;;;;;;5081576;28;20453;-68
2021/04/22 06:11:34;;;;;;;18.45;13.75;;;;;;;;;;5077488;28;20056;-68
2021/04/22 06:14:01;;;;;;;21.05;14.25;;;;;;;;;;5079498;28;20192;-68
2021/04/22 06:16:27;;;;;;;20.70;14.65;;;;;;;;;;5077601;28;20075;-68
2021/04/22 06:18:53;;;;;;;25.27;18.13;;;;;;;;;;5078239;28;20048;-68
2021/04/22 06:21:19;;;;;;;24.15;16.95;;;;;;;;;;5079235;28;20477;-68
2021/04/22 06:23:45;;;;;;;31.88;21.73;;;;;;;;;;5076125;28;20048;-69
2021/04/22 06:26:11;;;;;;;23.55;17.60;;;;;;;;;;5076526;28;20059;-69
2021/04/22 06:28:37;;;;;;;24.42;18.00;;;;;;;;;;5083315;28;20156;-69
2021/04/22 06:31:05;;;;;;;26.38;18.25;;;;;;;;;;5074844;28;20051;-69
2021/04/22 06:33:31;;;;;;;26.75;18.55;;;;;;;;;;5079104;28;20063;-69
2021/04/22 06:35:57;;;;;;;25.45;19.45;;;;;;;;;;5078080;28;20134;-67
2021/04/22 06:38:23;;;;;;;24.90;18.90;;;;;;;;;;5079455;28;20393;-69
2021/04/22 06:40:49;;;;;;;23.50;18.73;;;;;;;;;;5079046;28;20054;-67
2021/04/22 06:43:16;;;;;;;25.23;19.13;;;;;;;;;;5076089;28;20070;-67
2021/04/22 06:45:43;;;;;;;25.48;18.48;;;;;;;;;;5077977;28;20474;-69
2021/04/22 06:48:11;;;;;;;25.75;18.00;;;;;;;;;;5079489;28;20052;-71
2021/04/22 06:50:37;;;;;;;24.30;18.20;;;;;;;;;;5078890;28;20477;-69
2021/04/22 06:53:03;;;;;;;30.38;19.98;;;;;;;;;;5074576;28;20500;-70
2021/04/22 06:55:29;;;;;;;25.13;19.10;;;;;;;;;;5079492;28;20048;-69
2021/04/22 06:57:55;;;;;;;23.52;17.42;;;;;;;;;;5080236;28;20063;-69
2021/04/22 07:00:25;;;;;;;25.92;18.20;;;;;;;;;;5079202;28;20045;-69
2021/04/22 07:02:51;;;;;;;25.65;18.80;;;;;;;;;;5080756;28;20056;-70
2021/04/22 07:05:19;;;;;;;23.05;17.60;;;;;;;;;;5081250;28;20405;-68
2021/04/22 07:07:45;;;;;;;23.00;17.00;;;;;;;;;;5076363;28;20056;-68
2021/04/22 07:10:13;;;;;;;24.50;17.80;;;;;;;;;;5077782;28;20052;-69
2021/04/22 07:12:39;;;;;;;22.10;16.65;;;;;;;;;;5080748;28;20428;-69
2021/04/22 07:15:08;;;;;;;22.23;16.63;;;;;;;;;;5074707;28;20041;-69
2021/04/22 07:17:34;;;;;;;22.42;16.98;;;;;;;;;;5078528;28;20060;-72
2021/04/22 07:20:00;;;;;;;22.88;16.67;;;;;;;;;;5074144;28;20070;-69
2021/04/22 07:22:27;;;;;;;27.73;18.92;;;;;;;;;;5073784;28;20059;-69
2021/04/22 07:24:55;;;;;;;26.13;17.67;;;;;;;;;;5076124;28;20057;-69
2021/04/22 07:27:21;;;;;;;25.48;18.83;;;;;;;;;;5073689;28;20036;-71
2021/04/22 07:29:48;;;;;;;21.30;16.88;;;;;;;;;;5080658;28;20044;-69
2021/04/22 07:32:14;;;;;;;22.52;16.90;;;;;;;;;;5077159;28;20055;-68
2021/04/22 07:34:40;;;;;;;21.60;16.85;;;;;;;;;;5082000;28;20570;-71
2021/04/22 07:37:06;;;;;;;24.30;17.02;;;;;;;;;;5074587;28;20048;-70
2021/04/22 07:39:33;;;;;;;21.67;16.50;;;;;;;;;;5075912;28;20048;-70
2021/04/22 07:41:59;;;;;;;20.17;15.60;;;;;;;;;;5079659;28;20143;-70
2021/04/22 07:44:26;;;;;;;23.58;17.48;;;;;;;;;;5078940;28;20056;-69
2021/04/22 07:46:52;;;;;;;24.55;16.55;;;;;;;;;;5080938;28;20048;-69
2021/04/22 07:49:18;;;;;;;25.77;17.98;;;;;;;;;;5075200;28;20049;-70
2021/04/22 07:51:45;;;;;;;21.00;16.83;;;;;;;;;;5074980;28;20056;-70
2021/04/22 07:54:11;;;;;;;24.55;17.15;;;;;;;;;;5080113;28;20290;-70
2021/04/22 07:56:38;;;;;;;24.17;17.08;;;;;;;;;;5082888;28;20048;-70
2021/04/22 07:59:04;;;;;;;22.85;17.23;;;;;;;;;;5079629;28;20048;-71
2021/04/22 08:01:30;;;;;;;21.65;15.90;;;;;;;;;;5078656;28;20053;-70
2021/04/22 08:03:56;;;;;;;21.08;16.40;;;;;;;;;;5081281;28;20049;-69
2021/04/22 08:06:22;;;;;;;20.52;16.33;;;;;;;;;;5078185;28;20048;-70
2021/04/22 08:08:48;;;;;;;21.65;17.83;;;;;;;;;;5079826;28;20105;-71
2021/04/22 08:11:14;;;;;;;19.90;15.77;;;;;;;;;;5074272;28;20036;-70
2021/04/22 08:13:41;;;;;;;21.05;16.08;;;;;;;;;;5078971;28;20701;-70
2021/04/22 08:16:08;;;;;;;18.73;16.05;;;;;;;;;;5075726;28;20036;-70
2021/04/22 08:18:34;;;;;;;19.15;15.50;;;;;;;;;;5083540;28;20040;-70
2021/04/22 08:21:00;;;;;;;20.58;16.80;;;;;;;;;;5081149;28;20611;-70
2021/04/22 08:23:28;;;;;;;22.83;17.25;;;;;;;;;;5076713;28;20053;-70
2021/04/22 08:25:56;;;;;;;19.60;17.05;;;;;;;;;;5076430;28;20048;-70
2021/04/22 08:28:24;;;;;;;18.63;16.25;;;;;;;;;;5078787;28;20087;-70
2021/04/22 08:30:54;;;;;;;21.55;17.20;;;;;;;;;;5079635;28;20374;-70
2021/04/22 08:33:22;;;;;;;23.90;17.10;;;;;;;;;;5075827;28;20044;-70
2021/04/22 08:35:48;;;;;;;19.17;15.88;;;;;;;;;;5079120;28;20055;-69
2021/04/22 08:38:14;;;;;;;21.98;16.67;;;;;;;;;;5083978;28;20041;-70
2021/04/22 08:40:41;;;;;;;20.40;16.90;;;;;;;;;;5076349;28;20534;-70
2021/04/22 08:43:08;;;;;;;20.35;17.02;;;;;;;;;;5074383;28;20397;-70
2021/04/22 08:45:34;;;;;;;20.17;16.58;;;;;;;;;;5076976;28;20106;-70
2021/04/22 08:48:01;;;;;;;19.90;16.95;;;;;;;;;;5073996;28;20048;-70
2021/04/22 08:50:30;;;;;;;24.38;16.27;;;;;;;;;;5079621;28;20040;-69
2021/04/22 08:53:06;;;;;;;19.80;16.23;;;;;;;;;;5078666;28;20469;-70
2021/04/22 08:55:33;;;;;;;21.35;16.77;;;;;;;;;;5073624;28;20048;-69
2021/04/22 08:58:02;;;;;;;23.13;17.60;;;;;;;;;;5075675;28;20052;-69
2021/04/22 09:00:31;;;;;;;20.95;15.65;;;;;;;;;;5076193;28;20390;-69
2021/04/22 09:02:57;;;;;;;21.73;16.63;;;;;;;;;;5084593;28;20048;-70
2021/04/22 09:05:24;;;;;;;20.23;16.38;;;;;;;;;;5075277;28;20044;-69
2021/04/22 09:07:50;;;;;;;22.92;16.40;;;;;;;;;;5077429;28;20397;-69
2021/04/22 09:10:19;;;;;;;18.85;15.45;;;;;;;;;;5077838;28;20443;-69
2021/04/22 09:12:55;;;;;;;18.90;16.85;;;;;;;;;;5075637;28;20501;-69
2021/04/22 09:15:21;;;;;;;19.33;16.60;;;;;;;;;;5075248;28;20460;-70
2021/04/22 09:17:55;;;;;;;18.67;16.50;;;;;;;;;;5079864;28;20404;-69
2021/04/22 09:20:27;;;;;;;22.73;19.00;;;;;;;;;;5076221;28;20056;-69
2021/04/22 09:22:53;;;;;;;24.83;16.95;;;;;;;;;;5080670;28;20048;-70
2021/04/22 09:25:22;;;;;;;21.15;17.60;;;;;;;;;;5076591;28;20482;-70
2021/04/22 09:27:48;;;;;;;22.15;15.68;;;;;;;;;;5072646;28;20052;-69
2021/04/22 09:30:16;;;;;;;19.63;15.85;;;;;;;;;;5075864;28;20059;-70
2021/04/22 09:32:42;;;;;;;19.90;16.30;;;;;;;;;;5077888;28;20048;-69
2021/04/22 09:35:10;;;;;;;20.83;17.02;;;;;;;;;;5078965;28;20386;-70
2021/04/22 09:37:39;;;;;;;20.70;17.27;;;;;;;;;;5083181;28;20563;-70
2021/04/22 09:40:20;;;;;;;18.08;15.07;;;;;;;;;;5081559;28;20044;-70
2021/04/22 09:42:47;;;;;;;21.27;16.23;;;;;;;;;;5075271;28;20052;-70
2021/04/22 09:45:16;;;;;;;20.85;15.57;;;;;;;;;;5081337;28;20051;-70
2021/04/22 09:47:42;;;;;;;17.50;15.10;;;;;;;;;;5080257;28;20048;-68
2021/04/22 09:50:12;;;;;;;20.48;15.95;;;;;;;;;;5083165;28;20052;-68
2021/04/22 09:52:42;;;;;;;20.83;16.17;;;;;;;;;;5081733;28;20093;-69
2021/04/22 09:55:11;;;;;;;20.67;16.33;;;;;;;;;;5079120;28;20548;-68
2021/04/22 09:57:37;;;;;;;17.92;15.25;;;;;;;;;;5081450;28;20051;-69
2021/04/22 10:00:05;;;;;;;18.70;15.48;;;;;;;;;;5078539;28;20123;-69
2021/04/22 10:02:41;;;;;;;23.08;16.30;;;;;;;;;;5073173;28;20056;-69
2021/04/22 10:05:16;;;;;;;18.30;15.77;;;;;;;;;;5075232;28;20044;-69
2021/04/22 10:07:42;;;;;;;20.05;16.63;;;;;;;;;;5076294;28;20417;-69
2021/04/22 10:10:15;;;;;;;20.58;16.05;;;;;;;;;;5073656;28;20086;-69
2021/04/22 10:12:41;;;;;;;21.73;16.23;;;;;;;;;;5073093;28;20040;-69
2021/04/22 10:15:12;;;;;;;17.80;15.85;;;;;;;;;;5079518;28;20101;-69
2021/04/22 10:17:38;;;;;;;20.63;15.80;;;;;;;;;;5075096;28;20048;-69
2021/04/22 10:20:07;;;;;;;21.80;17.70;;;;;;;;;;5076243;28;20412;-69
2021/04/22 10:22:34;;;;;;;18.77;16.58;;;;;;;;;;5071316;28;20063;-69
2021/04/22 10:25:03;;;;;;;21.88;18.10;;;;;;;;;;5077159;28;20048;-70
2021/04/22 10:27:30;;;;;;;18.30;15.95;;;;;;;;;;5077301;28;20067;-69
2021/04/22 10:29:57;;;;;;;19.25;15.90;;;;;;;;;;5073548;28;20048;-69
2021/04/22 10:32:23;;;;;;;21.25;17.92;;;;;;;;;;5077143;28;20044;-69
2021/04/22 10:34:50;;;;;;;19.00;16.90;;;;;;;;;;5078225;28;20419;-69
2021/04/22 10:37:17;;;;;;;20.80;16.67;;;;;;;;;;5075467;28;20505;-69
2021/04/22 10:39:43;;;;;;;24.00;19.25;;;;;;;;;;5075293;28;20056;-69
2021/04/22 10:42:10;;;;;;;18.92;16.33;;;;;;;;;;5076822;28;20047;-72
2021/04/22 10:44:38;;;;;;;19.77;17.67;;;;;;;;;;5070368;28;20106;-71
2021/04/22 10:47:04;;;;;;;21.33;18.05;;;;;;;;;;5073250;28;20526;-69
2021/04/22 10:49:30;;;;;;;20.75;18.55;;;;;;;;;;5075465;28;20066;-70
2021/04/22 10:51:57;;;;;;;21.38;17.65;;;;;;;;;;5077215;28;20452;-70
2021/04/22 10:54:23;;;;;;;21.95;16.63;;;;;;;;;;5074043;28;20446;-71
2021/04/22 10:56:49;;;;;;;20.20;16.92;;;;;;;;;;5072357;28;20041;-70
2021/04/22 10:59:22;;;;;;;22.35;19.27;;;;;;;;;;5076395;28;20067;-70
2021/04/22 11:01:49;;;;;;;19.83;17.65;;;;;;;;;;5076125;28;20052;-68
2021/04/22 11:04:15;;;;;;;21.73;17.77;;;;;;;;;;5078225;28;20110;-69
2021/04/22 11:06:42;;;;;;;22.25;19.05;;;;;;;;;;5075853;28;20113;-69
2021/04/22 11:09:16;;;;;;;23.20;19.73;;;;;;;;;;5072347;28;20076;-68
2021/04/22 11:11:55;;;;;;;22.13;19.20;;;;;;;;;;5073908;28;20049;-68
2021/04/22 11:14:34;;;;;;;21.42;18.30;;;;;;;;;;5073978;28;20082;-68
2021/04/22 11:17:01;;;;;;;20.33;18.08;;;;;;;;;;5074754;28;20052;-68
2021/04/22 11:19:32;;;;;;;23.13;19.10;;;;;;;;;;5072369;28;20047;-68
2021/04/22 11:21:59;;;;;;;20.40;17.58;;;;;;;;;;5074850;28;20143;-69
2021/04/22 11:24:30;;;;;;;21.17;18.63;;;;;;;;;;5072838;28;20053;-70
2021/04/22 11:27:01;;;;;;;26.20;20.88;;;;;;;;;;5071700;28;20086;-69
2021/04/22 11:29:39;;;;;;;21.58;19.27;;;;;;;;;;5075673;28;21921;-69
2021/04/22 11:32:15;;;;;;;23.25;18.05;;;;;;;;;;5075791;28;20055;-69
2021/04/22 11:34:41;;;;;;;22.15;18.88;;;;;;;;;;5079957;28;20059;-69
2021/04/22 11:37:13;;;;;;;22.88;18.80;;;;;;;;;;5078153;28;20102;-69
2021/04/22 11:39:39;;;;;;;24.45;19.02;;;;;;;;;;5074989;28;20052;-69
2021/04/22 11:42:07;;;;;;;24.20;17.63;;;;;;;;;;5075302;28;20056;-67
2021/04/22 11:44:35;;;;;;;19.40;17.15;;;;;;;;;;5073071;28;20052;-67
2021/04/22 11:47:13;;;;;;;22.10;18.98;;;;;;;;;;5074469;28;20055;-68
2021/04/22 11:49:39;;;;;;;19.25;17.05;;;;;;;;;;5079102;28;20838;-68
2021/04/22 11:52:14;;;;;;;20.42;18.20;;;;;;;;;;5080271;28;20044;-68
2021/04/22 11:54:40;;;;;;;21.08;17.25;;;;;;;;;;5081137;28;20048;-68
2021/04/22 11:57:07;;;;;;;19.17;17.15;;;;;;;;;;5075137;28;20045;-68
2021/04/22 11:59:35;;;;;;;20.15;17.70;;;;;;;;;;5073800;28;20404;-69
2021/04/22 12:02:04;;;;;;;21.10;17.90;;;;;;;;;;5071576;28;20048;-69
2021/04/22 12:04:42;;;;;;;21.02;17.33;;;;;;;;;;5076430;28;20045;-69
2021/04/22 12:07:11;;;;;;;19.73;17.65;;;;;;;;;;5079180;28;20054;-69
2021/04/22 12:09:39;;;;;;;19.38;17.33;;;;;;;;;;5077533;28;20052;-69
2021/04/22 12:12:17;;;;;;;16.77;15.02;;;;;;;;;;5079028;28;20120;-70
2021/04/22 12:14:50;;;;;;;22.50;17.50;;;;;;;;;;5075234;28;20052;-69
2021/04/22 12:17:22;;;;;;;20.70;17.30;;;;;;;;;;5078904;28;20088;-69
2021/04/22 12:19:52;;;;;;;17.77;15.85;;;;;;;;;;5077574;28;20511;-69
2021/04/22 12:22:34;;;;;;;21.05;16.88;;;;;;;;;;5075634;28;20049;-69
2021/04/22 12:25:02;;;;;;;17.85;15.48;;;;;;;;;;5077373;28;20094;-70
2021/04/22 12:27:30;;;;;;;16.40;14.68;;;;;;;;;;5076129;28;20060;-70
2021/04/22 12:29:57;;;;;;;17.00;15.27;;;;;;;;;;5079260;28;20066;-69
2021/04/22 12:32:23;;;;;;;16.08;14.32;;;;;;;;;;5074795;28;20123;-68
2021/04/22 12:34:50;;;;;;;17.90;14.75;;;;;;;;;;5081493;28;20044;-72
2021/04/22 12:37:16;;;;;;;16.17;13.98;;;;;;;;;;5078019;28;20045;-69
2021/04/22 12:39:46;;;;;;;17.63;14.73;;;;;;;;;;5076959;28;20090;-70
2021/04/22 12:42:13;;;;;;;15.45;13.82;;;;;;;;;;5078407;28;20052;-70
2021/04/22 12:44:41;;;;;;;17.55;14.32;;;;;;;;;;5078924;28;20051;-70
2021/04/22 12:47:11;;;;;;;15.32;13.63;;;;;;;;;;5080868;28;20056;-70
2021/04/22 12:49:47;;;;;;;18.48;14.77;;;;;;;;;;5078738;28;20060;-71
2021/04/22 12:52:13;;;;;;;15.85;13.20;;;;;;;;;;5081489;28;20047;-71
2021/04/22 12:54:39;;;;;;;12.82;11.48;;;;;;;;;;5082714;28;20120;-72
2021/04/22 12:57:10;;;;;;;14.10;10.90;;;;;;;;;;5081758;28;20040;-71
2021/04/22 12:59:45;;;;;;;13.73;10.85;;;;;;;;;;5082244;28;20059;-69
2021/04/22 13:02:13;;;;;;;11.68;9.85;;;;;;;;;;5074147;28;20703;-69
2021/04/22 13:04:39;;;;;;;14.02;11.10;;;;;;;;;;5082890;28;20044;-69
2021/04/22 13:07:05;;;;;;;12.57;10.73;;;;;;;;;;5080257;28;20049;-69
2021/04/22 13:09:31;;;;;;;12.75;10.50;;;;;;;;;;5079570;28;20098;-70
2021/04/22 13:11:57;;;;;;;12.65;10.23;;;;;;;;;;5083563;28;20185;-69
2021/04/22 13:14:27;;;;;;;12.63;9.57;;;;;;;;;;5079616;28;20052;-68
2021/04/22 13:16:53;;;;;;;12.98;9.73;;;;;;;;;;5081232;28;20236;-69
2021/04/22 13:19:22;;;;;;;12.80;9.77;;;;;;;;;;5077550;28;20097;-69
2021/04/22 13:21:51;;;;;;;10.75;8.88;;;;;;;;;;5080906;28;20473;-69
2021/04/22 13:24:19;;;;;;;13.10;9.07;;;;;;;;;;5081296;28;20139;-69
2021/04/22 13:26:56;;;;;;;12.25;9.18;;;;;;;;;;5079110;28;20048;-69
2021/04/22 13:29:23;;;;;;;12.82;9.07;;;;;;;;;;5082905;28;20059;-68
2021/04/22 13:31:50;;;;;;;14.07;9.10;;;;;;;;;;5082482;28;20093;-69
2021/04/22 13:34:18;;;;;;;11.63;9.48;;;;;;;;;;5079056;28;20044;-69
2021/04/22 13:36:47;;;;;;;11.60;8.95;;;;;;;;;;5074279;28;20063;-69
2021/04/22 13:39:14;;;;;;;13.40;8.50;;;;;;;;;;5068096;28;20048;-70
2021/04/22 13:41:41;;;;;;;9.88;8.50;;;;;;;;;;5075017;28;20047;-69
2021/04/22 13:44:09;;;;;;;12.93;8.70;;;;;;;;;;5073805;28;20048;-69
2021/04/22 13:46:36;;;;;;;11.02;8.20;;;;;;;;;;5074372;28;20139;-70
2021/04/22 13:49:06;;;;;;;9.27;7.75;;;;;;;;;;5080199;28;20084;-69
2021/04/22 13:51:34;;;;;;;9.13;6.93;;;;;;;;;;5078825;28;20072;-69
2021/04/22 13:54:06;;;;;;;9.45;6.30;;;;;;;;;;5078983;28;20052;-69
2021/04/22 13:56:32;;;;;;;10.35;6.32;;;;;;;;;;5079548;28;20121;-69
2021/04/22 13:58:58;;;;;;;9.88;5.72;;;;;;;;;;5077697;28;20424;-69
2021/04/22 14:01:25;;;;;;;7.18;5.53;;;;;;;;;;5080457;28;20048;-69
2021/04/22 14:03:54;;;;;;;6.55;4.97;;;;;;;;;;5075945;28;20059;-71
2021/04/22 14:06:20;;;;;;;9.00;4.97;;;;;;;;;;5081894;28;20430;-69
2021/04/22 14:08:46;;;;;;;6.57;4.10;;;;;;;;;;5081761;28;20040;-69
2021/04/22 14:11:15;;;;;;;5.72;3.60;;;;;;;;;;5080469;28;20159;-69
2021/04/22 14:13:42;;;;;;;6.63;4.00;;;;;;;;;;5079634;28;20405;-69
2021/04/22 14:16:09;;;;;;;7.50;4.30;;;;;;;;;;5078241;28;20151;-69
2021/04/22 14:18:35;;;;;;;6.25;3.75;;;;;;;;;;5081541;28;20072;-69
2021/04/22 14:21:03;;;;;;;6.03;3.42;;;;;;;;;;5079070;28;20048;-69